Terminal Aerodrome Forecast
Issued by NWS

Home | Current Version | Previous Version | Text Only | Print | Product List | Glossary Off
Versions: 1 2 3 4 5 6 7 8 9 10 11 12 13 14 15 16 17 18 19 20 21 22 23 24 25 26 27 28 29

000
FTUS43 KABR 202300
TAFATY
TAF
KATY 202320Z 2100/2124 23018G25KT P6SM SKC
     FM210200 32014KT P6SM SKC
     FM211000 32008KT P6SM SKC
     FM211500 34016KT P6SM SKC=

USA.gov is the U.S. government's official web portal to all federal, state and local government web resources and services.